createdAt,value
2022-09-24T00:01:53.081Z,6.03
2022-09-24T00:04:26.275Z,5.40
2022-09-24T00:06:57.531Z,6.27
2022-09-24T00:09:28.858Z,5.53
2022-09-24T00:12:00.979Z,4.83
2022-09-24T00:14:32.367Z,8.03
2022-09-24T00:17:03.618Z,5.47
2022-09-24T00:19:34.880Z,8.47
2022-09-24T00:22:06.169Z,6.70
2022-09-24T00:24:56.937Z,4.90
2022-09-24T00:27:28.254Z,4.70
2022-09-24T00:29:59.528Z,6.43
2022-09-24T00:32:30.850Z,6.00
2022-09-24T00:35:02.095Z,6.40
2022-09-24T00:37:33.355Z,6.67
2022-09-24T00:40:05.961Z,6.53
2022-09-24T00:42:37.303Z,10.40
2022-09-24T00:45:11.631Z,6.30
2022-09-24T00:47:44.760Z,5.80
2022-09-24T00:50:31.495Z,8.13
2022-09-24T00:53:17.912Z,6.20
2022-09-24T00:55:54.140Z,6.53
2022-09-24T00:58:26.684Z,6.27
2022-09-24T01:01:05.554Z,6.60
2022-09-24T01:03:42.273Z,8.20
2022-09-24T01:06:13.832Z,5.93
2022-09-24T01:08:46.105Z,7.37
2022-09-24T01:11:44.223Z,6.23
2022-09-24T01:14:26.979Z,5.73
2022-09-24T01:17:32.070Z,6.20
2022-09-24T01:20:16.412Z,5.63
2022-09-24T01:23:03.381Z,8.40
2022-09-24T01:26:19.821Z,7.47
2022-09-24T01:29:05.828Z,5.93
2022-09-24T01:31:46.869Z,6.07
2022-09-24T01:34:26.834Z,6.83
2022-09-24T01:37:00.048Z,6.97
2022-09-24T01:39:33.136Z,6.73
2022-09-24T01:42:05.487Z,7.60
2022-09-24T01:44:39.681Z,8.67
2022-09-24T01:47:19.975Z,7.90
2022-09-24T01:49:53.639Z,8.83
2022-09-24T01:52:31.736Z,8.73
2022-09-24T01:55:07.671Z,6.77
2022-09-24T01:57:45.428Z,9.40
2022-09-24T02:00:21.566Z,8.23
2022-09-24T02:05:38.813Z,8.23
2022-09-24T02:08:22.184Z,7.03
2022-09-24T02:11:02.398Z,14.33
2022-09-24T02:13:39.547Z,13.77
2022-09-24T02:16:14.664Z,13.17
2022-09-24T02:18:48.278Z,10.53
2022-09-24T02:21:21.915Z,12.27
2022-09-24T02:24:10.731Z,14.77
2022-09-24T02:26:42.697Z,15.17
2022-09-24T02:29:14.278Z,13.83
2022-09-24T02:31:49.488Z,17.80
2022-09-24T02:34:29.873Z,14.45
2022-09-24T02:37:06.558Z,14.93
2022-09-24T02:39:38.115Z,17.20
2022-09-24T02:42:11.699Z,15.73
2022-09-24T02:44:43.045Z,18.50
2022-09-24T02:47:14.694Z,17.70
2022-09-24T02:49:45.979Z,20.37
2022-09-24T02:52:18.674Z,16.23
2022-09-24T02:54:50.542Z,17.10
2022-09-24T02:57:21.856Z,20.93
2022-09-24T02:59:53.141Z,19.83
2022-09-24T03:02:24.515Z,20.33
2022-09-24T03:04:56.334Z,21.07
2022-09-24T03:07:27.666Z,23.27
2022-09-24T03:09:59.477Z,23.07
2022-09-24T03:12:30.742Z,25.30
2022-09-24T03:15:02.014Z,31.90
2022-09-24T03:17:33.306Z,25.30
2022-09-24T03:20:05.059Z,21.97
2022-09-24T03:22:36.343Z,23.13
2022-09-24T03:25:08.211Z,27.63
2022-09-24T03:27:39.530Z,21.37
2022-09-24T03:30:30.186Z,21.60
2022-09-24T03:33:01.433Z,16.43
2022-09-24T03:35:32.981Z,17.53
2022-09-24T03:38:04.261Z,15.83
2022-09-24T03:40:35.628Z,17.87
2022-09-24T03:43:07.026Z,17.67
2022-09-24T03:45:39.536Z,15.43
2022-09-24T03:48:11.099Z,19.57
2022-09-24T03:50:43.094Z,21.80
2022-09-24T03:53:15.470Z,16.70
2022-09-24T03:55:49.258Z,18.87
2022-09-24T03:58:20.530Z,19.70
2022-09-24T04:00:53.717Z,13.80
2022-09-24T04:03:25.713Z,14.30
2022-09-24T04:05:57.098Z,15.83
2022-09-24T04:08:28.407Z,13.70
2022-09-24T04:11:00.029Z,17.57
2022-09-24T04:13:31.398Z,14.87
2022-09-24T04:16:04.173Z,15.33
2022-09-24T04:18:39.086Z,10.47
2022-09-24T04:21:10.785Z,13.60
2022-09-24T04:23:42.380Z,13.23
2022-09-24T04:26:13.701Z,13.13
2022-09-24T04:28:44.983Z,13.60
2022-09-24T04:31:16.412Z,13.07
2022-09-24T04:33:47.755Z,11.93
2022-09-24T04:36:19.178Z,13.00
2022-09-24T04:38:50.925Z,10.80
2022-09-24T04:41:22.169Z,16.90
2022-09-24T04:43:53.425Z,13.33
2022-09-24T04:46:24.792Z,10.43
2022-09-24T04:48:56.184Z,14.60
2022-09-24T04:51:27.522Z,15.10
2022-09-24T04:53:59.750Z,16.70
2022-09-24T04:56:31.597Z,15.87
2022-09-24T04:59:02.890Z,17.50
2022-09-24T05:01:34.341Z,18.27
2022-09-24T05:04:05.794Z,16.93
2022-09-24T05:06:37.047Z,17.20
2022-09-24T05:09:12.395Z,19.53
2022-09-24T05:11:44.064Z,22.77
2022-09-24T05:14:15.334Z,19.60
2022-09-24T05:16:49.212Z,21.43
2022-09-24T05:19:21.643Z,25.37
2022-09-24T05:21:53.059Z,26.50
2022-09-24T05:24:24.321Z,21.43
2022-09-24T05:27:10.772Z,26.97
2022-09-24T05:29:43.635Z,19.92
2022-09-24T05:32:18.287Z,25.43
2022-09-24T05:34:50.904Z,25.17
2022-09-24T05:37:22.192Z,23.80
2022-09-24T05:39:54.729Z,29.87
2022-09-24T05:42:25.989Z,25.30
2022-09-24T05:44:57.271Z,28.17
2022-09-24T05:47:28.574Z,23.50
2022-09-24T05:50:00.655Z,23.97
2022-09-24T05:52:31.910Z,24.07
2022-09-24T05:55:03.527Z,31.83
2022-09-24T05:57:34.919Z,25.40
2022-09-24T06:00:07.336Z,22.83
2022-09-24T06:02:38.823Z,24.17
2022-09-24T06:05:10.728Z,26.67
2022-09-24T06:07:41.981Z,25.13
2022-09-24T06:10:13.285Z,24.53
2022-09-24T06:12:44.983Z,25.27
2022-09-24T06:15:16.365Z,26.67
2022-09-24T06:17:47.860Z,23.53
2022-09-24T06:20:19.312Z,27.27
2022-09-24T06:22:50.637Z,26.67
2022-09-24T06:25:21.948Z,25.70
2022-09-24T06:28:01.199Z,25.60
2022-09-24T06:30:35.425Z,22.40
2022-09-24T06:33:15.824Z,26.50
2022-09-24T06:35:48.394Z,28.03
2022-09-24T06:38:26.493Z,23.03
2022-09-24T06:41:04.565Z,20.50
2022-09-24T06:43:36.097Z,22.27
2022-09-24T06:46:07.452Z,25.93
2022-09-24T06:48:39.592Z,21.53
2022-09-24T06:51:10.908Z,21.87
2022-09-24T06:53:42.173Z,28.70
2022-09-24T06:56:13.714Z,27.33
2022-09-24T06:58:45.033Z,22.80
2022-09-24T07:01:16.368Z,22.30
2022-09-24T07:03:47.662Z,23.53
2022-09-24T07:06:18.985Z,20.30
2022-09-24T07:08:51.584Z,21.93
2022-09-24T07:11:23.456Z,21.67
2022-09-24T07:13:54.707Z,20.30
2022-09-24T07:16:26.017Z,19.43
2022-09-24T07:18:58.180Z,19.90
2022-09-24T07:21:29.646Z,20.77
2022-09-24T07:24:00.912Z,23.23
2022-09-24T07:26:32.210Z,20.77
2022-09-24T07:29:04.191Z,20.80
2022-09-24T07:31:36.385Z,17.13
2022-09-24T07:34:09.026Z,19.00
2022-09-24T07:36:41.590Z,18.73
2022-09-24T07:39:12.875Z,17.70
2022-09-24T07:41:44.527Z,18.60
2022-09-24T07:44:16.021Z,21.33
2022-09-24T07:46:48.630Z,21.03
2022-09-24T07:49:19.941Z,21.40
2022-09-24T07:51:51.249Z,23.30
2022-09-24T07:54:22.627Z,21.40
2022-09-24T07:56:54.305Z,21.20
2022-09-24T07:59:25.793Z,21.37
2022-09-24T08:01:57.563Z,20.60
2022-09-24T08:04:29.051Z,18.53
2022-09-24T08:07:01.152Z,18.40
2022-09-24T08:09:32.999Z,20.80
2022-09-24T08:12:04.895Z,19.70
2022-09-24T08:14:36.277Z,23.80
2022-09-24T08:17:07.576Z,20.70
2022-09-24T08:19:40.154Z,19.83
2022-09-24T08:22:12.144Z,20.40
2022-09-24T08:24:43.476Z,22.20
2022-09-24T08:27:17.342Z,23.23
2022-09-24T08:29:48.857Z,20.90
2022-09-24T08:32:20.289Z,20.87
2022-09-24T08:34:52.851Z,17.40
2022-09-24T08:37:24.309Z,20.97
2022-09-24T08:39:55.917Z,20.97
2022-09-24T08:42:36.182Z,21.83
2022-09-24T08:45:29.631Z,18.70
2022-09-24T08:48:13.698Z,17.57
2022-09-24T08:50:58.179Z,22.93
2022-09-24T08:53:37.908Z,21.30
2022-09-24T08:56:11.160Z,18.33
2022-09-24T08:58:58.998Z,19.47
2022-09-24T09:01:45.924Z,18.20
2022-09-24T09:04:40.861Z,22.17
2022-09-24T09:07:23.143Z,21.93
2022-09-24T09:10:03.417Z,19.57
2022-09-24T09:12:39.518Z,22.13
2022-09-24T09:18:01.579Z,24.03
2022-09-24T09:20:41.390Z,25.83
2022-09-24T09:23:21.636Z,25.83
2022-09-24T09:25:57.509Z,24.93
2022-09-24T09:28:29.697Z,25.42
2022-09-24T09:31:19.962Z,25.90
2022-09-24T09:34:03.224Z,25.50
2022-09-24T09:36:54.817Z,21.83
2022-09-24T09:40:03.711Z,23.73
2022-09-24T09:42:37.034Z,24.10
2022-09-24T09:45:23.077Z,26.27
2022-09-24T09:47:59.066Z,25.40
2022-09-24T09:50:36.800Z,27.37
2022-09-24T09:53:25.361Z,27.87
2022-09-24T09:56:01.371Z,27.07
2022-09-24T09:58:52.872Z,27.17
2022-09-24T10:01:32.022Z,27.10
2022-09-24T10:04:04.843Z,27.03
2022-09-24T10:06:36.837Z,30.93
2022-09-24T10:09:13.609Z,29.33
2022-09-24T10:11:45.354Z,26.53
2022-09-24T10:14:22.023Z,27.40
2022-09-24T10:16:56.118Z,25.40
2022-09-24T10:19:34.061Z,32.30
2022-09-24T10:22:21.635Z,31.30
2022-09-24T10:24:55.872Z,25.67
2022-09-24T10:27:32.903Z,25.40
2022-09-24T10:30:34.569Z,30.13
2022-09-24T10:33:06.377Z,28.83
2022-09-24T10:35:38.660Z,27.63
2022-09-24T10:38:22.086Z,26.03
2022-09-24T10:40:53.545Z,25.83
2022-09-24T10:43:24.922Z,25.43
2022-09-24T10:46:14.717Z,27.70
2022-09-24T10:49:17.515Z,30.73
2022-09-24T10:52:12.529Z,26.57
2022-09-24T10:54:54.158Z,30.97
2022-09-24T10:57:55.498Z,26.57
2022-09-24T11:00:38.568Z,29.30
2022-09-24T11:03:24.401Z,27.17
2022-09-24T11:06:29.726Z,27.95
2022-09-24T11:09:13.746Z,27.17
2022-09-24T11:12:15.469Z,25.50
2022-09-24T11:14:55.445Z,30.67
2022-09-24T11:18:02.215Z,23.97
2022-09-24T11:20:38.600Z,28.52
2022-09-24T11:23:54.369Z,33.27
2022-09-24T11:26:57.920Z,36.57
2022-09-24T11:30:06.997Z,29.13
2022-09-24T11:33:04.287Z,23.73
2022-09-24T11:35:57.488Z,24.57
2022-09-24T11:38:47.992Z,23.27
2022-09-24T11:41:33.412Z,24.63
2022-09-24T11:44:31.640Z,21.47
2022-09-24T11:47:26.267Z,23.60
2022-09-24T11:50:00.886Z,24.90
2022-09-24T11:52:41.097Z,26.70
2022-09-24T11:55:21.722Z,23.83
2022-09-24T11:58:04.650Z,23.73
2022-09-24T12:00:42.894Z,22.17
2022-09-24T12:03:26.262Z,23.20
2022-09-24T12:06:04.006Z,25.40
2022-09-24T12:08:43.665Z,29.00
2022-09-24T12:11:22.957Z,28.73
2022-09-24T12:14:11.454Z,23.80
2022-09-24T12:16:45.720Z,19.33
2022-09-24T12:19:32.667Z,24.57
2022-09-24T12:22:05.737Z,22.07
2022-09-24T12:24:47.419Z,21.47
2022-09-24T12:27:36.707Z,24.13
2022-09-24T12:30:33.004Z,22.77
2022-09-24T12:33:29.542Z,22.45
2022-09-24T12:36:20.452Z,24.15
2022-09-24T12:38:56.885Z,21.77
2022-09-24T12:41:34.146Z,22.23
2022-09-24T12:44:11.198Z,25.53
2022-09-24T12:46:56.660Z,22.53
2022-09-24T12:49:35.403Z,20.43
2022-09-24T12:52:19.065Z,22.73
2022-09-24T12:55:02.857Z,22.17
2022-09-24T12:57:43.257Z,21.60
2022-09-24T13:00:41.327Z,23.73
2022-09-24T13:03:47.382Z,22.80
2022-09-24T13:06:37.768Z,24.17
2022-09-24T13:09:38.989Z,23.30
2022-09-24T13:12:14.247Z,21.93
2022-09-24T13:14:54.740Z,22.35
2022-09-24T13:17:26.304Z,23.40
2022-09-24T13:20:00.754Z,21.30
2022-09-24T13:22:34.711Z,22.13
2022-09-24T13:25:08.897Z,22.27
2022-09-24T13:27:42.469Z,19.00
2022-09-24T13:30:19.702Z,20.10
2022-09-24T13:33:00.267Z,21.83
2022-09-24T13:35:43.425Z,20.67
2022-09-24T13:38:34.737Z,19.47
2022-09-24T13:41:25.853Z,21.67
2022-09-24T13:44:04.471Z,20.50
2022-09-24T13:46:40.974Z,20.13
2022-09-24T13:49:17.612Z,22.03
2022-09-24T13:51:59.704Z,18.93
2022-09-24T13:54:39.616Z,18.83
2022-09-24T13:57:21.801Z,23.30
2022-09-24T14:00:21.071Z,21.53
2022-09-24T14:02:57.257Z,21.50
2022-09-24T14:05:31.249Z,20.83
2022-09-24T14:08:09.738Z,19.17
2022-09-24T14:10:42.025Z,21.60
2022-09-24T14:13:21.353Z,20.87
2022-09-24T14:16:14.314Z,17.87
2022-09-24T14:18:47.030Z,21.37
2022-09-24T14:21:30.316Z,20.30
2022-09-24T14:24:18.992Z,18.93
2022-09-24T14:27:13.398Z,21.83
2022-09-24T14:29:59.330Z,18.00
2022-09-24T14:32:56.935Z,21.38
2022-09-24T14:35:35.535Z,26.93
2022-09-24T14:38:24.806Z,19.63
2022-09-24T14:41:02.779Z,20.67
2022-09-24T14:44:08.668Z,22.10
2022-09-24T14:46:52.712Z,18.23
2022-09-24T14:49:31.010Z,16.40
2022-09-24T14:52:04.227Z,18.57
2022-09-24T14:54:40.260Z,17.87
2022-09-24T14:59:54.632Z,20.67
2022-09-24T15:02:28.637Z,19.33
2022-09-24T15:05:07.730Z,17.50
2022-09-24T15:07:39.870Z,20.03
2022-09-24T15:10:22.269Z,18.47
2022-09-24T15:12:53.493Z,18.53
2022-09-24T15:15:31.991Z,17.17
2022-09-24T15:18:03.863Z,16.57
2022-09-24T15:20:35.176Z,15.53
2022-09-24T15:23:06.571Z,18.80
2022-09-24T15:25:38.458Z,15.33
2022-09-24T15:28:14.214Z,17.63
2022-09-24T15:30:45.532Z,16.85
2022-09-24T15:33:17.512Z,16.00
2022-09-24T15:35:49.124Z,18.33
2022-09-24T15:38:20.663Z,16.23
2022-09-24T15:40:53.716Z,15.70
2022-09-24T15:43:25.334Z,15.37
2022-09-24T15:45:56.668Z,16.97
2022-09-24T15:48:28.077Z,18.20
2022-09-24T15:51:05.846Z,20.47
2022-09-24T15:53:41.072Z,18.57
2022-09-24T15:56:12.431Z,16.77
2022-09-24T15:58:43.693Z,16.87
2022-09-24T16:01:18.170Z,14.80
2022-09-24T16:03:49.553Z,15.50
2022-09-24T16:06:21.494Z,18.80
2022-09-24T16:08:52.736Z,18.23
2022-09-24T16:11:24.003Z,18.97
2022-09-24T16:13:55.298Z,16.83
2022-09-24T16:16:26.626Z,19.47
2022-09-24T16:18:58.101Z,21.87
2022-09-24T16:21:29.346Z,21.03
2022-09-24T16:24:01.263Z,22.00
2022-09-24T16:26:34.308Z,21.80
2022-09-24T16:29:07.056Z,18.30
2022-09-24T16:31:38.488Z,18.87
2022-09-24T16:34:11.377Z,22.47
2022-09-24T16:36:42.636Z,19.77
2022-09-24T16:39:15.806Z,21.90
2022-09-24T16:41:51.312Z,20.47
2022-09-24T16:44:22.657Z,21.20
2022-09-24T16:46:53.986Z,21.83
2022-09-24T16:49:25.534Z,22.10
2022-09-24T16:51:56.838Z,23.33
2022-09-24T16:54:29.545Z,26.13
2022-09-24T16:57:01.790Z,24.70
2022-09-24T16:59:33.234Z,23.93
2022-09-24T17:02:04.597Z,23.03
2022-09-24T17:04:36.024Z,25.43
2022-09-24T17:07:07.364Z,23.33
2022-09-24T17:09:58.729Z,26.63
2022-09-24T17:12:30.197Z,27.30
2022-09-24T17:15:04.304Z,24.30
2022-09-24T17:17:43.186Z,24.87
2022-09-24T17:20:18.786Z,25.00
2022-09-24T17:22:50.180Z,25.83
2022-09-24T17:25:21.549Z,30.70
2022-09-24T17:27:52.950Z,29.27
2022-09-24T17:30:24.419Z,25.53
2022-09-24T17:32:55.711Z,31.80
2022-09-24T17:35:27.033Z,28.60
2022-09-24T17:38:00.516Z,29.03
2022-09-24T17:40:31.857Z,32.37
2022-09-24T17:43:03.995Z,31.03
2022-09-24T17:45:35.542Z,29.67
2022-09-24T17:48:06.940Z,25.20
2022-09-24T17:50:38.246Z,32.80
2022-09-24T17:53:14.971Z,29.00
2022-09-24T17:55:50.976Z,29.27
2022-09-24T17:58:22.644Z,31.70
2022-09-24T18:00:54.917Z,31.20
2022-09-24T18:03:26.175Z,28.20
2022-09-24T18:06:01.803Z,28.67
2022-09-24T18:08:37.276Z,28.80
2022-09-24T18:11:10.471Z,23.73
2022-09-24T18:13:41.921Z,27.23
2022-09-24T18:16:16.044Z,27.20
2022-09-24T18:18:50.930Z,30.33
2022-09-24T18:21:24.062Z,28.90
2022-09-24T18:23:56.902Z,33.73
2022-09-24T18:26:34.146Z,28.47
2022-09-24T18:29:16.723Z,32.27
2022-09-24T18:31:49.293Z,28.97
2022-09-24T18:34:20.684Z,29.73
2022-09-24T18:36:51.963Z,28.73
2022-09-24T18:39:25.513Z,33.13
2022-09-24T18:41:57.358Z,32.30
2022-09-24T18:44:28.651Z,24.00
2022-09-24T18:46:59.895Z,24.10
2022-09-24T18:49:31.227Z,29.53
2022-09-24T18:52:02.506Z,30.67
2022-09-24T18:54:34.031Z,28.27
2022-09-24T18:57:05.559Z,27.80
2022-09-24T18:59:44.995Z,29.87
2022-09-24T19:02:16.541Z,30.30
2022-09-24T19:04:47.883Z,36.73
2022-09-24T19:07:19.253Z,32.77
2022-09-24T19:09:50.587Z,33.93
2022-09-24T19:12:21.828Z,30.10
2022-09-24T19:14:54.242Z,33.47
2022-09-24T19:17:26.545Z,35.10
2022-09-24T19:19:59.049Z,31.17
2022-09-24T19:22:30.433Z,34.83
2022-09-24T19:25:01.823Z,31.63
2022-09-24T19:27:33.199Z,33.23
2022-09-24T19:30:04.983Z,35.60
2022-09-24T19:32:37.084Z,33.83
2022-09-24T19:35:08.592Z,31.67
2022-09-24T19:37:40.294Z,34.83
2022-09-24T19:40:13.134Z,30.13
2022-09-24T19:42:44.430Z,32.17
2022-09-24T19:45:15.742Z,36.43
2022-09-24T19:47:47.063Z,33.43
2022-09-24T19:50:19.285Z,33.97
2022-09-24T19:52:51.849Z,37.77
2022-09-24T19:55:27.791Z,40.37
2022-09-24T19:58:01.349Z,39.00
2022-09-24T20:00:33.470Z,36.90
2022-09-24T20:03:05.108Z,39.30
2022-09-24T20:05:37.153Z,34.07
2022-09-24T20:08:11.193Z,41.60
2022-09-24T20:10:43.111Z,39.77
2022-09-24T20:13:14.456Z,39.03
2022-09-24T20:15:45.877Z,43.73
2022-09-24T20:18:17.739Z,43.07
2022-09-24T20:20:48.994Z,49.70
2022-09-24T20:23:23.893Z,57.80
2022-09-24T20:26:14.294Z,54.87
2022-09-24T20:28:45.654Z,50.57
2022-09-24T20:31:19.077Z,50.10
2022-09-24T20:33:50.600Z,54.97
2022-09-24T20:36:24.360Z,50.67
2022-09-24T20:38:58.738Z,58.40
2022-09-24T20:41:29.982Z,57.73
2022-09-24T20:44:01.551Z,53.70
2022-09-24T20:46:32.891Z,59.30
2022-09-24T20:49:04.953Z,57.63
2022-09-24T20:51:37.120Z,63.10
2022-09-24T20:54:08.857Z,56.20
2022-09-24T20:56:40.217Z,59.90
2022-09-24T20:59:11.823Z,56.33
2022-09-24T21:01:44.709Z,54.93
2022-09-24T21:04:17.190Z,61.43
2022-09-24T21:06:49.524Z,55.87
2022-09-24T21:09:20.786Z,68.80
2022-09-24T21:11:53.031Z,74.37
2022-09-24T21:14:24.515Z,63.90
2022-09-24T21:16:56.381Z,77.03
2022-09-24T21:19:27.889Z,77.97
2022-09-24T21:21:59.695Z,109.00
2022-09-24T21:24:31.780Z,63.63
2022-09-24T21:27:05.176Z,63.53
2022-09-24T21:29:36.451Z,70.97
2022-09-24T21:32:07.697Z,72.40
2022-09-24T21:34:39.218Z,83.57
2022-09-24T21:37:14.530Z,81.30
2022-09-24T21:39:46.167Z,80.50
2022-09-24T21:42:19.626Z,77.60
2022-09-24T21:44:51.030Z,73.73
2022-09-24T21:47:22.298Z,78.83
2022-09-24T21:49:53.561Z,60.90
2022-09-24T21:52:26.534Z,65.73
2022-09-24T21:54:57.865Z,53.47
2022-09-24T21:57:29.105Z,66.87
2022-09-24T22:00:00.589Z,51.93
2022-09-24T22:02:31.934Z,53.63
2022-09-24T22:05:03.370Z,50.27
2022-09-24T22:07:34.609Z,36.97
2022-09-24T22:10:06.498Z,40.17
2022-09-24T22:12:37.789Z,39.23
2022-09-24T22:15:10.236Z,43.67
2022-09-24T22:17:42.304Z,37.83
2022-09-24T22:20:13.561Z,37.70
2022-09-24T22:22:44.923Z,45.97
2022-09-24T22:25:16.254Z,38.67
2022-09-24T22:27:47.697Z,41.40
2022-09-24T22:30:18.978Z,45.20
2022-09-24T22:32:50.214Z,49.30
2022-09-24T22:35:43.338Z,41.40
2022-09-24T22:38:16.189Z,41.60
2022-09-24T22:40:47.879Z,48.73
2022-09-24T22:43:19.293Z,49.50
2022-09-24T22:45:50.723Z,52.27
2022-09-24T22:48:22.001Z,42.07
2022-09-24T22:50:53.425Z,49.77
2022-09-24T22:53:25.207Z,55.10
2022-09-24T22:56:14.980Z,48.80
2022-09-24T22:58:52.298Z,58.20
2022-09-24T23:01:26.387Z,50.17
2022-09-24T23:03:58.537Z,49.90
2022-09-24T23:06:31.326Z,62.17
2022-09-24T23:09:03.682Z,48.77
2022-09-24T23:11:35.658Z,50.90
2022-09-24T23:14:12.636Z,50.53
2022-09-24T23:16:44.303Z,81.67
2022-09-24T23:19:19.133Z,65.30
2022-09-24T23:21:50.408Z,59.57
2022-09-24T23:24:21.961Z,51.70
2022-09-24T23:26:54.261Z,46.80
2022-09-24T23:29:25.592Z,51.93
2022-09-24T23:31:56.861Z,50.50
2022-09-24T23:34:28.158Z,55.57
2022-09-24T23:36:59.611Z,52.83
2022-09-24T23:39:30.892Z,55.00
2022-09-24T23:42:02.136Z,48.47
2022-09-24T23:44:34.517Z,75.17
2022-09-24T23:47:05.903Z,62.13
2022-09-24T23:49:37.166Z,66.43
2022-09-24T23:52:08.434Z,55.07
2022-09-24T23:54:40.231Z,52.73
2022-09-24T23:57:11.582Z,43.77
2022-09-24T23:59:42.866Z,46.00
